createdAt,value
2022-12-16T00:00:34.556Z,84.03
2022-12-16T00:01:34.516Z,84.78
2022-12-16T00:02:34.701Z,84.69
2022-12-16T00:03:34.945Z,84.22
2022-12-16T00:04:34.499Z,84.41
2022-12-16T00:05:34.455Z,84.12
2022-12-16T00:06:34.695Z,84.31
2022-12-16T00:07:34.422Z,84.31
2022-12-16T00:08:34.465Z,84.31
2022-12-16T00:09:34.413Z,84.31
2022-12-16T00:10:34.711Z,83.93
2022-12-16T00:11:34.442Z,84.59
2022-12-16T00:12:34.427Z,84.41
2022-12-16T00:13:34.769Z,84.50
2022-12-16T00:14:34.352Z,84.31
2022-12-16T00:15:34.340Z,83.93
2022-12-16T00:16:34.423Z,84.31
2022-12-16T00:17:34.302Z,84.22
2022-12-16T00:18:34.287Z,84.50
2022-12-16T00:19:34.272Z,84.22
2022-12-16T00:20:34.255Z,83.93
2022-12-16T00:21:34.247Z,84.27
2022-12-16T00:22:34.233Z,83.89
2022-12-16T00:23:34.893Z,84.36
2022-12-16T00:24:34.205Z,84.41
2022-12-16T00:25:34.229Z,84.50
2022-12-16T00:26:34.188Z,84.59
2022-12-16T00:27:34.179Z,84.59
2022-12-16T00:28:34.152Z,84.41
2022-12-16T00:29:34.135Z,84.08
2022-12-16T00:30:34.193Z,84.31
2022-12-16T00:31:34.215Z,84.17
2022-12-16T00:32:34.099Z,83.93
2022-12-16T00:33:34.632Z,84.03
2022-12-16T00:34:34.072Z,83.80
2022-12-16T00:35:34.057Z,83.93
2022-12-16T00:36:34.047Z,84.17
2022-12-16T00:37:34.261Z,84.17
2022-12-16T00:38:34.037Z,84.83
2022-12-16T00:39:34.001Z,84.17
2022-12-16T00:40:33.999Z,84.36
2022-12-16T00:41:33.994Z,84.55
2022-12-16T00:42:33.992Z,84.69
2022-12-16T00:43:34.318Z,84.27
2022-12-16T00:44:33.991Z,84.12
2022-12-16T00:45:33.959Z,84.17
2022-12-16T00:46:33.932Z,84.55
2022-12-16T00:47:33.911Z,84.45
2022-12-16T00:48:33.887Z,84.45
2022-12-16T00:49:33.883Z,84.17
2022-12-16T00:50:33.867Z,84.55
2022-12-16T00:51:33.861Z,84.55
2022-12-16T00:52:33.837Z,83.89
2022-12-16T00:53:34.253Z,84.22
2022-12-16T00:54:33.811Z,83.89
2022-12-16T00:55:33.800Z,83.70
2022-12-16T00:56:33.792Z,84.17
2022-12-16T00:57:33.765Z,84.08
2022-12-16T00:58:33.773Z,83.89
2022-12-16T00:59:33.742Z,83.93
2022-12-16T01:00:33.740Z,84.08
2022-12-16T01:01:33.812Z,83.70
2022-12-16T01:02:33.812Z,83.80
2022-12-16T01:03:33.906Z,83.04
2022-12-16T01:04:33.737Z,83.23
2022-12-16T01:05:33.664Z,83.61
2022-12-16T01:06:33.681Z,83.42
2022-12-16T01:07:33.654Z,83.42
2022-12-16T01:08:33.618Z,83.42
2022-12-16T01:09:33.615Z,83.33
2022-12-16T01:10:33.595Z,83.51
2022-12-16T01:11:33.584Z,83.42
2022-12-16T01:12:33.591Z,82.89
2022-12-16T01:13:33.987Z,82.85
2022-12-16T01:14:33.544Z,82.57
2022-12-16T01:15:33.533Z,82.76
2022-12-16T01:16:33.511Z,82.66
2022-12-16T01:17:33.519Z,82.85
2022-12-16T01:18:33.484Z,82.95
2022-12-16T01:19:33.505Z,82.76
2022-12-16T01:20:33.457Z,82.95
2022-12-16T01:21:33.453Z,82.76
2022-12-16T01:22:33.449Z,83.04
2022-12-16T01:23:33.964Z,82.76
2022-12-16T01:24:33.422Z,82.85
2022-12-16T01:25:33.400Z,82.85
2022-12-16T01:26:33.417Z,83.04
2022-12-16T01:27:33.412Z,82.76
2022-12-16T01:28:33.356Z,82.85
2022-12-16T01:29:33.351Z,83.42
2022-12-16T01:30:33.336Z,83.23
2022-12-16T01:31:33.340Z,83.04
2022-12-16T01:32:33.299Z,83.04
2022-12-16T01:33:33.786Z,83.42
2022-12-16T01:34:33.288Z,83.42
2022-12-16T01:36:33.248Z,83.04
2022-12-16T01:37:33.248Z,82.85
2022-12-16T01:38:33.255Z,83.04
2022-12-16T01:39:33.210Z,82.95
2022-12-16T01:40:33.202Z,82.47
2022-12-16T01:41:33.196Z,82.76
2022-12-16T01:42:33.181Z,82.66
2022-12-16T01:43:33.476Z,82.57
2022-12-16T01:44:33.144Z,82.57
2022-12-16T01:45:33.197Z,82.85
2022-12-16T01:46:33.132Z,82.57
2022-12-16T01:47:33.117Z,82.85
2022-12-16T01:48:33.113Z,83.33
2022-12-16T01:49:33.088Z,83.42
2022-12-16T01:50:33.074Z,83.51
2022-12-16T01:51:33.060Z,83.42
2022-12-16T01:52:33.084Z,83.61
2022-12-16T01:53:33.511Z,83.51
2022-12-16T01:54:33.010Z,83.42
2022-12-16T01:55:32.998Z,83.42
2022-12-16T01:56:32.994Z,83.14
2022-12-16T01:57:32.973Z,83.04
2022-12-16T01:58:32.967Z,82.95
2022-12-16T01:59:32.986Z,82.57
2022-12-16T02:00:32.940Z,83.04
2022-12-16T02:01:33.143Z,82.95
2022-12-16T02:02:33.112Z,83.14
2022-12-16T02:03:33.232Z,83.04
2022-12-16T02:04:32.894Z,83.04
2022-12-16T02:05:32.878Z,82.66
2022-12-16T02:06:32.852Z,82.47
2022-12-16T02:07:32.860Z,81.91
2022-12-16T02:08:32.832Z,82.47
2022-12-16T02:09:32.839Z,82.95
2022-12-16T02:10:32.803Z,82.66
2022-12-16T02:11:32.786Z,82.66
2022-12-16T02:12:32.772Z,83.04
2022-12-16T02:13:33.202Z,82.85
2022-12-16T02:14:32.752Z,82.66
2022-12-16T02:15:32.752Z,82.66
2022-12-16T02:16:39.977Z,82.95
2022-12-16T02:18:36.736Z,82.85
2022-12-16T02:19:36.685Z,82.57
2022-12-16T02:21:40.691Z,82.95
2022-12-16T02:22:40.671Z,83.04
2022-12-16T02:24:44.683Z,82.76
2022-12-16T02:25:44.612Z,82.19
2022-12-16T02:27:37.565Z,82.28
2022-12-16T02:28:37.495Z,82.28
2022-12-16T02:30:41.625Z,82.85
2022-12-16T02:31:41.466Z,83.42
2022-12-16T02:33:45.418Z,83.70
2022-12-16T02:34:45.402Z,83.70
2022-12-16T02:36:49.456Z,83.98
2022-12-16T02:37:49.390Z,83.89
2022-12-16T02:39:53.396Z,83.80
2022-12-16T02:40:53.375Z,83.70
2022-12-16T02:42:57.354Z,83.80
2022-12-16T02:43:57.309Z,83.33
2022-12-16T02:46:01.333Z,83.33
2022-12-16T02:47:01.251Z,83.42
2022-12-16T02:49:05.317Z,83.51
2022-12-16T02:50:05.248Z,83.23
2022-12-16T02:52:09.276Z,83.42
2022-12-16T02:53:09.229Z,83.04
2022-12-16T02:55:13.798Z,82.85
2022-12-16T02:56:13.595Z,83.04
2022-12-16T02:58:17.371Z,83.51
2022-12-16T02:59:17.333Z,83.42
2022-12-16T03:01:21.395Z,83.04
2022-12-16T03:02:21.441Z,82.85
2022-12-16T03:04:14.484Z,83.04
2022-12-16T03:05:14.365Z,83.14
2022-12-16T03:07:07.388Z,82.95
2022-12-16T03:08:07.269Z,83.04
2022-12-16T03:10:11.253Z,83.04
2022-12-16T03:11:11.208Z,82.95
2022-12-16T03:13:15.216Z,82.76
2022-12-16T03:14:15.159Z,82.47
2022-12-16T03:16:19.175Z,82.47
2022-12-16T03:17:19.115Z,82.85
2022-12-16T03:19:23.136Z,82.85
2022-12-16T03:20:23.078Z,82.57
2022-12-16T03:22:27.076Z,83.33
2022-12-16T03:23:27.032Z,83.42
2022-12-16T03:25:31.010Z,83.04
2022-12-16T03:26:31.015Z,82.95
2022-12-16T03:28:35.004Z,83.51
2022-12-16T03:29:34.988Z,83.33
2022-12-16T03:31:38.997Z,83.42
2022-12-16T03:32:38.946Z,83.04
2022-12-16T03:34:32.057Z,83.42
2022-12-16T03:35:32.030Z,82.85
2022-12-16T03:37:24.956Z,83.42
2022-12-16T03:38:24.910Z,82.66
2022-12-16T03:40:28.987Z,82.85
2022-12-16T03:41:28.893Z,83.04
2022-12-16T03:43:33.342Z,82.95
2022-12-16T03:44:32.848Z,82.85
2022-12-16T03:46:36.992Z,82.85
2022-12-16T03:47:36.819Z,83.42
2022-12-16T03:49:40.846Z,84.08
2022-12-16T03:50:40.838Z,83.80
2022-12-16T03:52:44.864Z,83.80
2022-12-16T03:53:44.777Z,83.70
2022-12-16T03:54:44.829Z,83.89
2022-12-16T03:55:44.776Z,84.17
2022-12-16T03:56:44.908Z,83.61
2022-12-16T03:57:44.736Z,83.70
2022-12-16T03:58:44.713Z,84.08
2022-12-16T03:59:44.695Z,83.98
2022-12-16T04:00:44.700Z,83.80
2022-12-16T04:01:44.780Z,83.80
2022-12-16T04:02:44.967Z,83.98
2022-12-16T04:03:44.741Z,83.98
2022-12-16T04:04:44.639Z,83.70
2022-12-16T04:05:44.626Z,83.70
2022-12-16T04:06:44.611Z,84.08
2022-12-16T04:07:44.595Z,84.08
2022-12-16T04:08:44.581Z,83.51
2022-12-16T04:09:44.576Z,83.61
2022-12-16T04:10:44.555Z,83.51
2022-12-16T04:11:44.541Z,83.70
2022-12-16T04:12:44.667Z,83.33
2022-12-16T04:13:44.531Z,83.04
2022-12-16T04:14:46.782Z,83.61
2022-12-16T04:15:44.610Z,83.33
2022-12-16T04:16:44.577Z,83.98
2022-12-16T04:17:44.456Z,83.80
2022-12-16T04:18:44.457Z,83.70
2022-12-16T04:19:44.464Z,83.70
2022-12-16T04:20:44.436Z,83.89
2022-12-16T04:21:44.433Z,84.08
2022-12-16T04:22:44.409Z,84.17
2022-12-16T04:23:44.388Z,84.08
2022-12-16T04:24:44.386Z,83.61
2022-12-16T04:25:44.374Z,83.04
2022-12-16T04:26:44.371Z,83.33
2022-12-16T04:27:44.418Z,82.95
2022-12-16T04:28:44.326Z,82.85
2022-12-16T04:29:44.386Z,83.14
2022-12-16T04:30:44.392Z,82.95
2022-12-16T04:31:44.304Z,83.04
2022-12-16T04:32:44.269Z,82.76
2022-12-16T04:33:44.257Z,82.66
2022-12-16T04:34:44.254Z,82.38
2022-12-16T04:35:44.262Z,82.28
2022-12-16T04:36:44.238Z,82.57
2022-12-16T04:37:44.229Z,82.85
2022-12-16T04:38:44.212Z,82.95
2022-12-16T04:39:44.183Z,82.66
2022-12-16T04:40:44.177Z,83.14
2022-12-16T04:41:44.205Z,83.14
2022-12-16T04:42:44.228Z,82.85
2022-12-16T04:43:44.126Z,83.04
2022-12-16T04:44:44.111Z,83.51
2022-12-16T04:45:44.136Z,83.42
2022-12-16T04:46:44.149Z,83.23
2022-12-16T04:47:44.101Z,83.33
2022-12-16T04:48:44.060Z,83.42
2022-12-16T04:49:44.045Z,83.42
2022-12-16T04:50:44.041Z,83.42
2022-12-16T04:51:44.034Z,83.51
2022-12-16T04:52:44.027Z,83.42
2022-12-16T04:53:44.016Z,83.51
2022-12-16T04:54:43.965Z,83.04
2022-12-16T04:55:43.973Z,82.85
2022-12-16T04:56:43.946Z,83.23
2022-12-16T04:57:43.940Z,82.85
2022-12-16T04:58:43.916Z,83.33
2022-12-16T04:59:43.911Z,83.04
2022-12-16T05:00:43.908Z,82.85
2022-12-16T05:01:44.084Z,82.57
2022-12-16T05:02:43.990Z,82.95
2022-12-16T05:03:44.002Z,82.76
2022-12-16T05:04:43.843Z,82.76
2022-12-16T05:05:43.850Z,82.57
2022-12-16T05:06:43.823Z,82.66
2022-12-16T05:07:43.809Z,83.14
2022-12-16T05:08:43.782Z,82.95
2022-12-16T05:09:43.811Z,82.85
2022-12-16T05:10:43.764Z,82.85
2022-12-16T05:11:43.754Z,82.85
2022-12-16T05:12:43.730Z,82.85
2022-12-16T05:13:43.730Z,83.04
2022-12-16T05:14:43.707Z,83.04
2022-12-16T05:15:43.754Z,82.95
2022-12-16T05:16:43.692Z,82.66
2022-12-16T05:17:43.704Z,82.85
2022-12-16T05:18:43.659Z,82.85
2022-12-16T05:19:43.632Z,82.47
2022-12-16T05:20:43.633Z,82.66
2022-12-16T05:21:43.618Z,82.47
2022-12-16T05:22:43.603Z,82.28
2022-12-16T05:23:43.585Z,82.10
2022-12-16T05:24:46.253Z,82.19
2022-12-16T05:25:43.565Z,82.85
2022-12-16T05:26:43.564Z,82.76
2022-12-16T05:27:43.561Z,82.28
2022-12-16T05:28:43.516Z,82.38
2022-12-16T05:29:43.516Z,82.00
2022-12-16T05:30:43.502Z,82.10
2022-12-16T05:31:43.632Z,82.47
2022-12-16T05:32:43.464Z,82.66
2022-12-16T05:33:43.450Z,82.95
2022-12-16T05:34:43.451Z,82.76
2022-12-16T05:35:43.441Z,82.95
2022-12-16T05:36:43.422Z,82.47
2022-12-16T05:37:43.401Z,82.47
2022-12-16T05:38:43.419Z,82.38
2022-12-16T05:39:43.370Z,82.47
2022-12-16T05:40:43.423Z,82.57
2022-12-16T05:41:43.355Z,82.66
2022-12-16T05:42:43.321Z,82.47
2022-12-16T05:43:43.313Z,82.76
2022-12-16T05:44:43.314Z,82.57
2022-12-16T05:45:43.359Z,82.66
2022-12-16T05:46:43.397Z,82.76
2022-12-16T05:47:43.285Z,82.85
2022-12-16T05:48:47.703Z,82.95
2022-12-16T05:49:43.255Z,82.85
2022-12-16T05:50:43.231Z,82.85
2022-12-16T05:51:43.252Z,82.76
2022-12-16T05:52:43.210Z,82.95
2022-12-16T05:53:43.185Z,82.85
2022-12-16T05:54:43.196Z,83.04
2022-12-16T05:55:43.177Z,82.85
2022-12-16T05:56:43.158Z,82.85
2022-12-16T05:57:43.162Z,83.04
2022-12-16T05:58:43.123Z,83.14
2022-12-16T05:59:43.115Z,82.76
2022-12-16T06:00:43.094Z,82.57
2022-12-16T06:01:43.242Z,82.38
2022-12-16T06:02:43.233Z,82.95
2022-12-16T06:03:43.188Z,82.57
2022-12-16T06:04:43.045Z,82.66
2022-12-16T06:05:43.040Z,82.57
2022-12-16T06:06:43.036Z,82.66
2022-12-16T06:07:42.999Z,82.95
2022-12-16T06:08:43.008Z,83.04
2022-12-16T06:09:42.973Z,83.04
2022-12-16T06:10:42.969Z,82.95
2022-12-16T06:11:42.955Z,83.42
2022-12-16T06:12:42.952Z,83.23
2022-12-16T06:13:42.947Z,83.23
2022-12-16T06:14:42.907Z,83.33
2022-12-16T06:15:42.904Z,83.23
2022-12-16T06:16:42.925Z,82.57
2022-12-16T06:17:42.872Z,82.76
2022-12-16T06:18:42.868Z,82.57
2022-12-16T06:19:42.854Z,82.85
2022-12-16T06:20:42.836Z,82.95
2022-12-16T06:21:42.819Z,82.85
2022-12-16T06:22:42.819Z,82.66
2022-12-16T06:23:42.789Z,82.76
2022-12-16T06:24:42.793Z,82.95
2022-12-16T06:25:42.817Z,82.66
2022-12-16T06:26:42.750Z,82.95
2022-12-16T06:27:42.761Z,82.76
2022-12-16T06:28:45.897Z,82.76
2022-12-16T06:29:42.720Z,83.23
2022-12-16T06:30:42.687Z,83.14
2022-12-16T06:31:42.737Z,82.76
2022-12-16T06:32:42.665Z,82.76
2022-12-16T06:33:42.672Z,82.85
2022-12-16T06:34:42.674Z,82.85
2022-12-16T06:35:42.648Z,82.76
2022-12-16T06:36:42.645Z,82.66
2022-12-16T06:37:42.613Z,82.85
2022-12-16T06:38:42.622Z,82.85
2022-12-16T06:39:42.691Z,82.85
2022-12-16T06:40:42.571Z,82.66
2022-12-16T06:41:42.580Z,82.85
2022-12-16T06:42:42.581Z,82.85
2022-12-16T06:43:42.553Z,83.04
2022-12-16T06:44:42.523Z,82.57
2022-12-16T06:45:42.645Z,82.57
2022-12-16T06:46:42.512Z,82.38
2022-12-16T06:47:42.502Z,82.76
2022-12-16T06:48:42.472Z,82.57
2022-12-16T06:49:42.488Z,82.76
2022-12-16T06:50:44.995Z,82.85
2022-12-16T06:51:42.437Z,82.85
2022-12-16T06:52:42.428Z,82.57
2022-12-16T06:53:42.406Z,82.95
2022-12-16T06:54:42.418Z,82.95
2022-12-16T06:55:42.380Z,82.85
2022-12-16T06:56:42.360Z,83.04
2022-12-16T06:57:42.343Z,82.66
2022-12-16T06:58:42.344Z,83.14
2022-12-16T06:59:42.323Z,83.04
2022-12-16T07:00:42.351Z,83.23
2022-12-16T07:01:42.488Z,83.04
2022-12-16T07:02:42.434Z,83.42
2022-12-16T07:03:42.878Z,83.14
2022-12-16T07:04:42.283Z,83.80
2022-12-16T07:05:42.236Z,83.70
2022-12-16T07:06:42.222Z,83.80
2022-12-16T07:07:42.215Z,83.80
2022-12-16T07:08:42.210Z,83.80
2022-12-16T07:09:42.187Z,83.04
2022-12-16T07:10:42.168Z,83.23
2022-12-16T07:11:42.157Z,83.42
2022-12-16T07:12:42.142Z,83.42
2022-12-16T07:13:42.138Z,83.42
2022-12-16T07:14:42.120Z,83.23
2022-12-16T07:15:42.109Z,83.42
2022-12-16T07:16:42.132Z,83.33
2022-12-16T07:17:42.079Z,83.33
2022-12-16T07:18:42.069Z,83.33
2022-12-16T07:19:42.116Z,83.42
2022-12-16T07:20:42.033Z,83.70
2022-12-16T07:21:42.057Z,83.42
2022-12-16T07:22:42.048Z,83.33
2022-12-16T07:23:41.995Z,83.51
2022-12-16T07:24:41.988Z,83.80
2022-12-16T07:25:42.006Z,83.80
2022-12-16T07:26:41.953Z,83.98
2022-12-16T07:27:41.950Z,83.98
2022-12-16T07:28:41.944Z,83.80
2022-12-16T07:29:41.934Z,83.80
2022-12-16T07:30:41.918Z,84.27
2022-12-16T07:31:41.933Z,84.27
2022-12-16T07:32:41.905Z,84.17
2022-12-16T07:33:41.867Z,83.98
2022-12-16T07:34:45.900Z,84.36
2022-12-16T07:35:41.855Z,84.36
2022-12-16T07:36:41.823Z,84.74
2022-12-16T07:37:41.817Z,84.83
2022-12-16T07:38:41.795Z,84.83
2022-12-16T07:39:41.782Z,85.11
2022-12-16T07:40:41.775Z,85.21
2022-12-16T07:41:41.772Z,84.36
2022-12-16T07:42:41.760Z,84.83
2022-12-16T07:43:41.725Z,84.36
2022-12-16T07:44:41.717Z,84.55
2022-12-16T07:45:45.133Z,84.36
2022-12-16T07:46:41.686Z,84.45
2022-12-16T07:47:41.704Z,84.55
2022-12-16T07:48:41.665Z,84.17
2022-12-16T07:49:41.658Z,84.55
2022-12-16T07:50:41.664Z,84.83
2022-12-16T07:51:41.642Z,84.64
2022-12-16T07:52:41.627Z,84.45
2022-12-16T07:53:41.609Z,84.36
2022-12-16T07:54:41.592Z,85.30
2022-12-16T07:55:41.592Z,85.02
2022-12-16T07:56:41.616Z,84.83
2022-12-16T07:57:41.565Z,85.30
2022-12-16T07:58:41.539Z,85.11
2022-12-16T07:59:41.527Z,85.21
2022-12-16T08:00:41.516Z,84.88
2022-12-16T08:01:41.599Z,85.25
2022-12-16T08:02:41.715Z,85.06
2022-12-16T08:03:41.498Z,85.25
2022-12-16T08:04:41.468Z,84.97
2022-12-16T08:05:41.453Z,85.25
2022-12-16T08:06:41.450Z,84.50
2022-12-16T08:07:41.416Z,84.69
2022-12-16T08:08:41.398Z,84.59
2022-12-16T08:09:41.400Z,84.59
2022-12-16T08:10:41.383Z,84.59
2022-12-16T08:11:41.371Z,84.59
2022-12-16T08:12:41.348Z,84.50
2022-12-16T08:13:41.330Z,83.93
2022-12-16T08:14:41.327Z,84.12
2022-12-16T08:15:41.331Z,84.22
2022-12-16T08:16:48.559Z,84.03
2022-12-16T08:18:45.384Z,83.93
2022-12-16T08:19:45.302Z,84.88
2022-12-16T08:21:49.234Z,84.50
2022-12-16T08:22:49.223Z,84.59
2022-12-16T08:24:56.210Z,84.41
2022-12-16T08:25:53.155Z,84.22
2022-12-16T08:27:46.101Z,83.84
2022-12-16T08:28:46.063Z,83.27
2022-12-16T08:30:50.115Z,83.46
2022-12-16T08:31:50.017Z,83.17
2022-12-16T08:33:54.019Z,82.80
2022-12-16T08:34:53.991Z,83.08
2022-12-16T08:36:57.983Z,83.46
2022-12-16T08:37:57.947Z,83.55
2022-12-16T08:40:33.943Z,83.46
2022-12-16T08:41:01.947Z,83.55
2022-12-16T08:43:11.020Z,83.55
2022-12-16T08:44:05.839Z,83.08
2022-12-16T08:46:09.898Z,82.89
2022-12-16T08:47:09.791Z,83.17
2022-12-16T08:50:13.733Z,83.84
2022-12-16T08:52:17.876Z,83.93
2022-12-16T08:53:17.710Z,83.84
2022-12-16T08:55:27.690Z,83.17
2022-12-16T08:56:21.695Z,82.51
2022-12-16T08:58:14.719Z,81.52
2022-12-16T08:59:14.555Z,81.33
2022-12-16T09:01:13.534Z,80.10
2022-12-16T09:02:11.916Z,78.97
2022-12-16T09:03:11.993Z,78.50
2022-12-16T09:04:11.773Z,78.44
2022-12-16T09:05:11.672Z,77.69
2022-12-16T09:06:38.479Z,77.21
2022-12-16T09:07:11.653Z,76.55
2022-12-16T09:08:11.664Z,75.79
2022-12-16T09:09:18.487Z,75.70
2022-12-16T09:10:11.624Z,75.13
2022-12-16T09:12:43.303Z,73.66
2022-12-16T09:13:43.290Z,72.71
2022-12-16T09:15:47.351Z,71.77
2022-12-16T09:16:47.221Z,72.14
2022-12-16T09:17:47.222Z,71.67
2022-12-16T09:18:47.249Z,71.20
2022-12-16T09:19:47.225Z,71.11
2022-12-16T09:20:47.199Z,71.07
2022-12-16T09:21:47.186Z,71.35
2022-12-16T09:22:47.283Z,71.64
2022-12-16T09:23:47.188Z,71.73
2022-12-16T09:24:47.160Z,71.92
2022-12-16T09:25:47.155Z,72.20
2022-12-16T09:26:47.190Z,71.92
2022-12-16T09:27:47.144Z,72.39
2022-12-16T09:28:47.125Z,72.39
2022-12-16T09:29:47.112Z,72.96
2022-12-16T09:30:47.200Z,73.05
2022-12-16T09:31:47.093Z,73.33
2022-12-16T09:32:47.081Z,73.90
2022-12-16T09:33:47.081Z,74.43
2022-12-16T09:34:47.067Z,75.00
2022-12-16T09:35:47.063Z,75.79
2022-12-16T09:36:47.061Z,75.85
2022-12-16T09:37:47.030Z,76.55
2022-12-16T09:38:47.021Z,76.64
2022-12-16T09:39:47.035Z,76.74
2022-12-16T09:40:47.034Z,76.55
2022-12-16T09:41:46.994Z,76.42
2022-12-16T09:42:46.988Z,76.51
2022-12-16T09:43:46.973Z,76.89
2022-12-16T09:44:46.970Z,76.61
2022-12-16T09:45:46.962Z,76.89
2022-12-16T09:46:46.999Z,76.70
2022-12-16T09:47:46.968Z,76.79
2022-12-16T09:48:46.938Z,76.89
2022-12-16T09:49:46.914Z,77.64
2022-12-16T09:50:46.902Z,77.36
2022-12-16T09:51:46.896Z,77.64
2022-12-16T09:52:46.882Z,77.45
2022-12-16T09:53:46.876Z,77.26
2022-12-16T09:54:46.871Z,77.83
2022-12-16T09:55:46.858Z,77.45
2022-12-16T09:56:46.840Z,77.55
2022-12-16T09:57:51.314Z,78.31
2022-12-16T09:58:46.816Z,77.93
2022-12-16T09:59:46.811Z,78.12
2022-12-16T10:00:46.801Z,78.59
2022-12-16T10:01:46.882Z,78.59
2022-12-16T10:02:47.001Z,78.87
2022-12-16T10:03:46.915Z,78.78
2022-12-16T10:04:46.750Z,78.87
2022-12-16T10:05:46.772Z,79.06
2022-12-16T10:06:46.725Z,79.16
2022-12-16T10:07:46.728Z,79.06
2022-12-16T10:08:46.761Z,78.63
2022-12-16T10:09:46.695Z,78.34
2022-12-16T10:10:46.692Z,77.93
2022-12-16T10:11:46.674Z,77.93
2022-12-16T10:12:46.668Z,78.02
2022-12-16T10:13:46.654Z,78.40
2022-12-16T10:14:46.642Z,78.81
2022-12-16T10:15:46.711Z,78.68
2022-12-16T10:16:46.724Z,78.68
2022-12-16T10:17:46.611Z,78.53
2022-12-16T10:18:46.664Z,78.81
2022-12-16T10:19:46.585Z,78.59
2022-12-16T10:20:46.580Z,78.12
2022-12-16T10:21:46.563Z,77.97
2022-12-16T10:22:46.552Z,78.63
2022-12-16T10:23:46.540Z,78.25
2022-12-16T10:24:46.536Z,78.63
2022-12-16T10:25:46.534Z,78.16
2022-12-16T10:26:46.536Z,77.97
2022-12-16T10:27:46.501Z,78.34
2022-12-16T10:28:46.485Z,78.16
2022-12-16T10:29:46.479Z,78.16
2022-12-16T10:30:46.514Z,78.25
2022-12-16T10:31:46.521Z,77.78
2022-12-16T10:32:46.443Z,77.87
2022-12-16T10:33:46.583Z,77.69
2022-12-16T10:34:46.446Z,77.59
2022-12-16T10:35:46.441Z,77.78
2022-12-16T10:36:46.407Z,77.78
2022-12-16T10:37:46.402Z,77.69
2022-12-16T10:38:46.398Z,77.69
2022-12-16T10:39:46.365Z,77.50
2022-12-16T10:40:46.354Z,77.69
2022-12-16T10:41:46.336Z,77.50
2022-12-16T10:42:46.354Z,77.78
2022-12-16T10:43:46.320Z,78.34
2022-12-16T10:44:46.317Z,78.25
2022-12-16T10:45:46.292Z,78.34
2022-12-16T10:46:46.340Z,78.34
2022-12-16T10:47:46.325Z,78.16
2022-12-16T10:48:54.992Z,78.34
2022-12-16T10:49:50.829Z,78.06
2022-12-16T10:50:46.281Z,78.25
2022-12-16T10:51:46.239Z,78.25
2022-12-16T10:52:46.228Z,77.50
2022-12-16T10:53:46.219Z,77.50
2022-12-16T10:54:46.265Z,77.50
2022-12-16T10:55:46.206Z,77.69
2022-12-16T10:56:46.178Z,77.40
2022-12-16T10:57:46.187Z,77.21
2022-12-16T10:58:46.159Z,77.78
2022-12-16T10:59:46.159Z,77.69
2022-12-16T11:00:46.144Z,77.31
2022-12-16T11:01:46.616Z,77.59
2022-12-16T11:02:46.520Z,77.31
2022-12-16T11:03:46.210Z,77.50
2022-12-16T11:04:46.268Z,77.40
2022-12-16T11:05:46.086Z,77.31
2022-12-16T11:06:46.116Z,77.40
2022-12-16T11:07:46.080Z,77.69
2022-12-16T11:08:46.049Z,77.69
2022-12-16T11:09:46.047Z,77.69
2022-12-16T11:10:46.089Z,77.69
2022-12-16T11:11:46.033Z,77.59
2022-12-16T11:12:46.006Z,77.50
2022-12-16T11:13:45.988Z,77.78
2022-12-16T11:15:46.042Z,77.72
2022-12-16T11:16:46.056Z,77.91
2022-12-16T11:17:45.954Z,77.82
2022-12-16T11:18:45.939Z,77.44
2022-12-16T11:19:46.001Z,77.53
2022-12-16T11:20:45.933Z,77.34
2022-12-16T11:21:45.926Z,77.72
2022-12-16T11:22:45.901Z,77.34
2022-12-16T11:23:45.896Z,77.63
2022-12-16T11:24:45.875Z,77.72
2022-12-16T11:25:45.895Z,77.53
2022-12-16T11:26:45.882Z,77.34
2022-12-16T11:27:45.849Z,77.34
2022-12-16T11:28:45.824Z,77.44
2022-12-16T11:29:45.847Z,77.44
2022-12-16T11:30:45.804Z,77.72
2022-12-16T11:31:45.929Z,77.44
2022-12-16T11:32:45.796Z,77.53
2022-12-16T11:33:45.771Z,77.91
2022-12-16T11:34:45.792Z,77.82
2022-12-16T11:35:45.763Z,77.63
2022-12-16T11:36:45.786Z,77.82
2022-12-16T11:37:45.730Z,77.91
2022-12-16T11:38:45.723Z,77.44
2022-12-16T11:39:45.703Z,77.34
2022-12-16T11:40:45.698Z,77.34
2022-12-16T11:41:45.686Z,77.44
2022-12-16T11:42:45.674Z,77.34
2022-12-16T11:43:45.736Z,77.72
2022-12-16T11:44:45.661Z,77.63
2022-12-16T11:45:45.644Z,77.34
2022-12-16T11:46:45.706Z,77.53
2022-12-16T11:47:45.623Z,77.34
2022-12-16T11:48:45.611Z,77.82
2022-12-16T11:49:45.593Z,77.72
2022-12-16T11:50:45.592Z,77.82
2022-12-16T11:51:45.575Z,77.53
2022-12-16T11:52:45.585Z,77.63
2022-12-16T11:53:45.557Z,77.91
2022-12-16T11:54:45.613Z,77.91
2022-12-16T11:56:45.594Z,77.53
2022-12-16T11:57:45.514Z,77.72
2022-12-16T11:58:45.501Z,77.63
2022-12-16T11:59:45.508Z,77.63
2022-12-16T12:00:45.475Z,77.25
2022-12-16T12:01:46.051Z,77.25
2022-12-16T12:02:45.548Z,77.34
2022-12-16T12:03:45.629Z,77.44
2022-12-16T12:04:45.508Z,77.53
2022-12-16T12:05:45.435Z,77.72
2022-12-16T12:06:45.431Z,77.53
2022-12-16T12:07:46.336Z,78.01
2022-12-16T12:08:45.393Z,77.63
2022-12-16T12:09:45.384Z,78.48
2022-12-16T12:10:45.390Z,78.39
2022-12-16T12:11:45.358Z,78.20
2022-12-16T12:12:45.353Z,78.39
2022-12-16T12:13:46.932Z,78.20
2022-12-16T12:14:45.325Z,78.20
2022-12-16T12:15:45.323Z,77.91
2022-12-16T12:16:45.380Z,78.39
2022-12-16T12:17:45.296Z,78.39
2022-12-16T12:18:45.302Z,78.01
2022-12-16T12:19:45.267Z,78.58
2022-12-16T12:20:45.305Z,78.67
2022-12-16T12:21:45.267Z,78.58
2022-12-16T12:22:45.243Z,78.67
2022-12-16T12:23:45.226Z,78.76
2022-12-16T12:24:45.822Z,78.67
2022-12-16T12:25:45.214Z,78.58
2022-12-16T12:26:45.202Z,78.67
2022-12-16T12:27:45.185Z,78.86
2022-12-16T12:28:45.175Z,78.48
2022-12-16T12:29:45.160Z,78.76
2022-12-16T12:30:45.155Z,78.67
2022-12-16T12:31:45.274Z,78.58
2022-12-16T12:32:45.150Z,78.58
2022-12-16T12:33:45.130Z,78.86
2022-12-16T12:34:45.116Z,78.86
2022-12-16T12:35:45.099Z,78.67
2022-12-16T12:36:45.097Z,78.58
2022-12-16T12:37:45.074Z,78.58
2022-12-16T12:38:45.065Z,78.48
2022-12-16T12:39:45.056Z,78.48
2022-12-16T12:40:45.077Z,78.67
2022-12-16T12:41:45.045Z,78.86
2022-12-16T12:42:49.266Z,78.58
2022-12-16T12:43:45.262Z,78.58
2022-12-16T12:44:49.032Z,78.58
2022-12-16T12:45:45.046Z,78.58
2022-12-16T12:46:45.076Z,78.39
2022-12-16T12:47:44.964Z,78.39
2022-12-16T12:48:44.975Z,78.58
2022-12-16T12:49:44.948Z,78.86
2022-12-16T12:50:44.939Z,78.67
2022-12-16T12:51:44.932Z,78.67
2022-12-16T12:52:44.937Z,78.76
2022-12-16T12:53:44.903Z,78.67
2022-12-16T12:54:44.887Z,78.58
2022-12-16T12:55:44.876Z,79.05
2022-12-16T12:56:44.887Z,78.67
2022-12-16T12:57:44.877Z,78.76
2022-12-16T12:58:44.852Z,78.76
2022-12-16T12:59:44.844Z,79.14
2022-12-16T13:00:44.867Z,78.95
2022-12-16T13:01:44.956Z,78.76
2022-12-16T13:02:44.897Z,79.33
2022-12-16T13:03:44.969Z,79.33
2022-12-16T13:04:44.789Z,79.14
2022-12-16T13:05:44.776Z,78.67
2022-12-16T13:06:44.762Z,79.14
2022-12-16T13:07:44.749Z,78.67
2022-12-16T13:08:44.741Z,78.76
2022-12-16T13:09:44.775Z,79.52
2022-12-16T13:10:44.727Z,78.67
2022-12-16T13:11:44.705Z,78.67
2022-12-16T13:12:44.705Z,78.58
2022-12-16T13:13:44.676Z,78.58
2022-12-16T13:14:44.681Z,78.67
2022-12-16T13:15:44.685Z,78.76
2022-12-16T13:16:44.688Z,78.67
2022-12-16T13:17:44.649Z,78.76
2022-12-16T13:18:44.637Z,79.05
2022-12-16T13:19:44.618Z,78.95
2022-12-16T13:20:44.603Z,78.95
2022-12-16T13:21:44.606Z,78.67
2022-12-16T13:22:44.594Z,78.95
2022-12-16T13:23:44.596Z,78.95
2022-12-16T13:24:44.574Z,78.67
2022-12-16T13:25:44.551Z,78.76
2022-12-16T13:26:44.551Z,78.67
2022-12-16T13:27:44.540Z,78.76
2022-12-16T13:28:44.559Z,78.67
2022-12-16T13:29:44.522Z,78.86
2022-12-16T13:30:45.707Z,78.95
2022-12-16T13:31:44.537Z,79.14
2022-12-16T13:32:44.483Z,78.95
2022-12-16T13:33:44.474Z,78.76
2022-12-16T13:34:44.482Z,78.76
2022-12-16T13:35:44.456Z,78.76
2022-12-16T13:36:44.436Z,78.76
2022-12-16T13:37:44.440Z,78.76
2022-12-16T13:38:44.418Z,78.86
2022-12-16T13:39:44.445Z,78.86
2022-12-16T13:40:44.399Z,78.67
2022-12-16T13:41:44.376Z,79.33
2022-12-16T13:42:44.385Z,79.24
2022-12-16T13:43:44.357Z,79.14
2022-12-16T13:44:44.360Z,79.14
2022-12-16T13:45:44.409Z,79.14
2022-12-16T13:46:44.345Z,78.95
2022-12-16T13:47:44.314Z,78.95